Time;durP1;ratioP1;P1;durP2;ratioP2;P2;SDS_P1;SDS_P2;PMS_P1;PMS_P2;Temp;Humidity;BMP_temperature;BMP_pressure;BME280_temperature;BME280_humidity;BME280_pressure;Samples;Min_cycle;Max_cycle;Signal;HPM_P1;HPM_P2
2022/09/02 00:01:56;;;;;;;9.07;7.80;;;26.80;34.80;;;;;;4999720;28;20441;-83
2022/09/02 00:04:25;;;;;;;10.00;7.37;;;26.80;34.90;;;;;;4993444;28;20530;-83
2022/09/02 00:06:54;;;;;;;8.90;7.07;;;26.70;34.80;;;;;;4999986;28;20456;-84
2022/09/02 00:09:23;;;;;;;8.20;7.33;;;26.70;34.90;;;;;;5000420;28;20449;-83
2022/09/02 00:11:52;;;;;;;9.00;6.57;;;26.70;34.90;;;;;;5000333;28;20477;-84
2022/09/02 00:14:22;;;;;;;8.20;7.03;;;26.60;34.90;;;;;;4999620;28;20514;-83
2022/09/02 00:16:51;;;;;;;7.47;6.50;;;26.60;35.00;;;;;;5001288;28;20473;-84
2022/09/02 00:19:21;;;;;;;7.20;6.50;;;26.50;34.90;;;;;;5000239;28;20530;-83
2022/09/02 00:21:49;;;;;;;7.20;6.50;;;26.50;35.00;;;;;;4991187;28;20939;-83
2022/09/02 00:24:17;;;;;;;7.00;6.30;;;26.50;35.00;;;;;;4998460;28;20455;-83
2022/09/02 00:26:45;;;;;;;6.80;6.10;;;26.50;35.00;;;;;;5000991;28;20424;-83
2022/09/02 00:29:14;;;;;;;6.33;5.73;;;26.50;35.00;;;;;;5001038;28;20452;-84
2022/09/02 00:31:42;;;;;;;7.00;6.30;;;26.40;35.10;;;;;;4999963;28;20436;-83
2022/09/02 00:34:10;;;;;;;6.80;6.10;;;26.40;35.10;;;;;;5000802;28;20424;-83
2022/09/02 00:36:42;;;;;;;6.47;5.97;;;26.40;35.10;;;;;;5001174;28;20469;-83
2022/09/02 00:39:10;;;;;;;5.90;5.40;;;26.40;35.10;;;;;;5000611;28;20447;-83
2022/09/02 00:41:39;;;;;;;6.70;6.10;;;26.30;35.10;;;;;;4998352;28;20435;-83
2022/09/02 00:44:08;;;;;;;6.27;5.70;;;26.30;35.10;;;;;;5000989;28;20515;-83
2022/09/02 00:46:36;;;;;;;6.27;5.77;;;26.20;35.10;;;;;;5000118;28;20469;-84
2022/09/02 00:49:07;;;;;;;6.33;5.70;;;26.20;35.20;;;;;;4998903;28;20475;-83
2022/09/02 00:51:39;;;;;;;6.40;5.80;;;26.20;35.20;;;;;;4999302;28;20441;-83
2022/09/02 00:54:10;;;;;;;7.90;6.13;;;26.20;35.20;;;;;;4998511;28;20437;-82
2022/09/02 00:56:44;;;;;;;5.80;5.40;;;26.20;35.30;;;;;;4999177;28;20442;-83
2022/09/02 00:59:16;;;;;;;7.10;6.40;;;26.10;35.30;;;;;;4997029;28;20463;-83
2022/09/02 01:01:44;;;;;;;14.00;10.50;;;26.10;35.20;;;;;;4979854;28;20473;-82
2022/09/02 01:04:12;;;;;;;11.43;10.23;;;26.10;35.40;;;;;;4979474;28;20431;-83
2022/09/02 01:06:41;;;;;;;15.20;10.80;;;26.10;35.40;;;;;;4980329;28;20425;-83
2022/09/02 01:09:11;;;;;;;18.80;13.23;;;26.00;35.30;;;;;;4979702;28;20477;-83
2022/09/02 01:11:41;;;;;;;15.83;12.60;;;26.00;35.30;;;;;;4979749;28;20462;-83
2022/09/02 01:14:11;;;;;;;17.30;13.10;;;26.00;35.30;;;;;;4979191;28;20481;-82
2022/09/02 01:16:41;;;;;;;18.00;14.07;;;26.00;35.50;;;;;;4979057;28;20858;-83
2022/09/02 01:19:20;;;;;;;18.90;14.57;;;25.90;35.30;;;;;;4998911;28;20921;-83
2022/09/02 01:21:53;;;;;;;19.60;15.43;;;25.90;35.40;;;;;;4980414;28;20444;-83
2022/09/02 01:24:29;;;;;;;20.60;15.40;;;25.90;35.40;;;;;;4980871;28;20446;-83
2022/09/02 01:27:02;;;;;;;22.20;16.57;;;25.90;35.40;;;;;;4981058;28;20420;-83
2022/09/02 01:29:44;;;;;;;19.77;14.87;;;25.90;35.50;;;;;;4981438;28;20947;-84
2022/09/02 01:32:28;;;;;;;18.10;14.40;;;25.80;35.50;;;;;;4980199;28;20516;-83
2022/09/02 01:35:02;;;;;;;18.53;14.90;;;25.80;35.40;;;;;;4979684;28;20452;-83
2022/09/02 01:37:38;;;;;;;20.20;14.90;;;25.80;35.50;;;;;;4978226;28;20428;-83
2022/09/02 01:40:07;;;;;;;19.03;14.20;;;25.80;35.60;;;;;;4978208;28;20545;-84
2022/09/02 01:42:35;;;;;;;19.63;14.70;;;25.70;35.50;;;;;;4978644;28;20519;-83
2022/09/02 01:45:03;;;;;;;19.27;15.27;;;25.70;35.50;;;;;;4979277;28;20521;-83
2022/09/02 01:47:34;;;;;;;20.50;16.20;;;25.70;35.50;;;;;;4978630;28;20469;-83
2022/09/02 01:50:03;;;;;;;19.40;14.97;;;25.60;35.50;;;;;;4979457;28;20496;-83
2022/09/02 01:52:31;;;;;;;19.43;15.60;;;25.60;35.50;;;;;;4979490;28;20542;-83
2022/09/02 01:55:00;;;;;;;22.33;16.30;;;25.60;35.60;;;;;;4980002;28;20482;-85
2022/09/02 01:57:29;;;;;;;21.47;15.87;;;25.60;35.70;;;;;;4979516;28;20516;-84
2022/09/02 01:59:57;;;;;;;21.57;16.07;;;25.60;35.70;;;;;;4979344;28;20440;-83
2022/09/02 02:02:25;;;;;;;23.90;16.47;;;25.50;36.40;;;;;;4979712;28;20461;-84
2022/09/02 02:04:53;;;;;;;21.17;16.43;;;25.50;35.70;;;;;;4979528;28;20455;-84
2022/09/02 02:07:22;;;;;;;21.60;15.70;;;25.50;35.70;;;;;;4980158;28;20516;-84
2022/09/02 02:09:50;;;;;;;19.47;15.63;;;25.50;35.70;;;;;;4989046;28;20468;-83
2022/09/02 02:12:20;;;;;;;20.07;15.27;;;25.40;35.70;;;;;;4992046;28;20431;-83
2022/09/02 02:14:48;;;;;;;19.10;14.23;;;25.40;35.70;;;;;;5002594;28;20528;-83
2022/09/02 02:17:16;;;;;;;19.57;14.83;;;25.40;35.70;;;;;;5000831;28;20435;-83
2022/09/02 02:19:44;;;;;;;20.10;14.87;;;25.30;35.70;;;;;;5000469;28;20450;-83
2022/09/02 02:22:12;;;;;;;21.40;15.30;;;25.30;35.80;;;;;;5006438;28;20491;-83
2022/09/02 02:24:40;;;;;;;22.00;14.47;;;25.30;35.80;;;;;;4996694;28;20454;-83
2022/09/02 02:27:08;;;;;;;21.83;14.90;;;25.30;35.60;;;;;;4999347;28;20427;-81
2022/09/02 02:29:38;;;;;;;20.60;15.23;;;25.30;35.80;;;;;;4997193;28;20448;-82
2022/09/02 02:32:06;;;;;;;18.27;14.93;;;25.20;35.90;;;;;;4998293;28;20452;-83
2022/09/02 02:34:34;;;;;;;18.60;14.30;;;25.20;35.80;;;;;;4997680;28;20548;-83
2022/09/02 02:37:02;;;;;;;18.30;14.53;;;25.20;35.90;;;;;;4998176;28;20532;-83
2022/09/02 02:39:30;;;;;;;18.77;15.07;;;25.20;35.90;;;;;;4997947;28;20433;-83
2022/09/02 02:41:58;;;;;;;19.17;14.27;;;25.20;35.90;;;;;;4983073;28;20565;-84
2022/09/02 02:44:26;;;;;;;17.50;13.93;;;25.10;35.90;;;;;;4995797;28;20424;-83
2022/09/02 02:46:55;;;;;;;17.90;14.57;;;25.10;36.00;;;;;;4997943;28;20847;-83
2022/09/02 02:49:25;;;;;;;19.13;13.87;;;25.10;36.00;;;;;;4997981;28;20463;-83
2022/09/02 02:51:53;;;;;;;16.90;13.40;;;25.10;35.90;;;;;;5001797;28;20455;-84
2022/09/02 02:54:22;;;;;;;16.90;13.27;;;25.00;36.00;;;;;;4998142;28;20431;-83
2022/09/02 02:56:55;;;;;;;19.10;13.53;;;25.00;36.00;;;;;;4994355;28;20448;-84
2022/09/02 02:59:24;;;;;;;17.73;13.40;;;25.00;36.00;;;;;;4999044;28;20458;-84
2022/09/02 03:01:53;;;;;;;15.33;12.77;;;25.00;36.10;;;;;;5001164;28;20527;-84
2022/09/02 03:04:23;;;;;;;17.70;13.40;;;25.00;35.90;;;;;;5000121;28;20463;-84
2022/09/02 03:06:51;;;;;;;15.43;12.60;;;25.00;36.00;;;;;;5001264;28;20424;-84
2022/09/02 03:09:19;;;;;;;15.30;11.87;;;24.90;36.00;;;;;;4999852;28;20511;-83
2022/09/02 03:11:47;;;;;;;16.13;12.40;;;24.90;36.00;;;;;;5000384;28;20466;-84
2022/09/02 03:14:15;;;;;;;16.70;12.93;;;24.90;36.00;;;;;;4986972;28;20480;-83
2022/09/02 03:16:43;;;;;;;17.67;13.87;;;24.80;36.00;;;;;;4982228;28;20446;-84
2022/09/02 03:19:13;;;;;;;16.20;12.43;;;24.80;36.00;;;;;;4982351;28;20463;-84
2022/09/02 03:21:42;;;;;;;14.30;11.83;;;24.80;36.20;;;;;;4983992;28;20445;-84
2022/09/02 03:24:11;;;;;;;14.20;11.20;;;24.80;36.20;;;;;;4984737;28;20448;-84
2022/09/02 03:26:40;;;;;;;15.43;11.57;;;24.70;36.10;;;;;;4983490;28;20455;-84
2022/09/02 03:29:08;;;;;;;15.13;11.80;;;24.70;36.10;;;;;;4982865;28;20492;-83
2022/09/02 03:31:36;;;;;;;15.07;11.37;;;24.70;36.20;;;;;;4982085;28;20432;-84
2022/09/02 03:34:04;;;;;;;14.53;11.30;;;24.70;36.20;;;;;;4983333;28;20444;-84
2022/09/02 03:36:34;;;;;;;16.07;11.97;;;24.60;36.20;;;;;;4981874;28;20523;-84
2022/09/02 03:39:03;;;;;;;16.10;11.77;;;24.60;36.20;;;;;;4983839;28;20484;-85
2022/09/02 03:41:36;;;;;;;14.20;11.43;;;24.60;36.20;;;;;;4983018;28;20465;-84
2022/09/02 03:44:04;;;;;;;13.93;11.13;;;24.60;36.20;;;;;;4981698;28;20556;-84
2022/09/02 03:46:32;;;;;;;14.93;11.20;;;24.60;36.20;;;;;;4981318;28;20501;-84
2022/09/02 03:49:01;;;;;;;14.67;11.47;;;24.50;36.20;;;;;;4975367;28;20473;-84
2022/09/02 03:51:30;;;;;;;13.27;10.23;;;24.50;36.10;;;;;;4975855;28;20421;-84
2022/09/02 03:53:58;;;;;;;13.40;10.20;;;24.50;36.20;;;;;;4975860;28;20483;-84
2022/09/02 03:56:28;;;;;;;11.30;9.53;;;24.50;36.20;;;;;;4975588;28;20503;-83
2022/09/02 03:58:56;;;;;;;12.73;10.53;;;24.50;36.20;;;;;;4976148;28;20456;-84
2022/09/02 04:01:25;;;;;;;12.03;9.97;;;24.50;36.30;;;;;;4975824;28;20448;-84
2022/09/02 04:04:01;;;;;;;11.80;9.90;;;24.50;36.20;;;;;;4976262;28;20452;-83
2022/09/02 04:06:29;;;;;;;11.80;9.60;;;24.50;36.20;;;;;;4981226;28;20449;-84
2022/09/02 04:08:59;;;;;;;13.43;10.60;;;24.40;36.20;;;;;;4998883;28;20472;-84
2022/09/02 04:11:29;;;;;;;12.03;9.57;;;24.40;36.10;;;;;;4998730;28;20453;-84
2022/09/02 04:13:57;;;;;;;11.10;9.23;;;24.40;36.20;;;;;;4998273;28;20426;-84
2022/09/02 04:16:27;;;;;;;12.60;10.07;;;24.40;36.10;;;;;;4998585;28;20535;-84
2022/09/02 04:18:56;;;;;;;11.27;9.30;;;24.40;36.20;;;;;;4998584;28;20412;-84
2022/09/02 04:21:24;;;;;;;12.67;9.87;;;24.30;36.20;;;;;;4999251;28;20453;-84
2022/09/02 04:23:52;;;;;;;13.23;9.00;;;24.30;36.10;;;;;;4982195;28;20558;-84
2022/09/02 04:26:21;;;;;;;10.70;8.63;;;24.30;36.30;;;;;;4997683;28;20473;-84
2022/09/02 04:28:52;;;;;;;10.03;8.67;;;24.30;36.20;;;;;;5000186;28;20455;-83
2022/09/02 04:31:24;;;;;;;10.40;8.70;;;24.30;36.30;;;;;;4999842;28;20465;-84
2022/09/02 04:33:52;;;;;;;9.67;8.20;;;24.20;36.30;;;;;;5000966;28;20505;-84
2022/09/02 04:36:21;;;;;;;9.83;8.57;;;24.20;36.20;;;;;;5000861;28;20534;-84
2022/09/02 04:38:51;;;;;;;9.57;8.50;;;24.20;36.20;;;;;;5000683;28;20451;-84
2022/09/02 04:41:20;;;;;;;9.57;8.10;;;24.20;36.30;;;;;;4989968;28;20454;-84
2022/09/02 04:43:49;;;;;;;9.77;7.63;;;24.10;36.20;;;;;;4981087;28;20472;-83
2022/09/02 04:46:18;;;;;;;8.67;7.53;;;24.10;36.20;;;;;;4982354;28;20440;-85
2022/09/02 04:48:58;;;;;;;9.13;7.73;;;24.10;36.30;;;;;;4982670;28;20470;-86
2022/09/02 04:51:26;;;;;;;9.13;7.37;;;24.10;36.20;;;;;;4978144;28;20446;-83
2022/09/02 04:53:54;;;;;;;10.03;7.10;;;24.10;36.30;;;;;;4981093;28;20540;-84
2022/09/02 04:56:23;;;;;;;9.43;7.93;;;24.10;36.20;;;;;;4981008;28;21061;-83
2022/09/02 04:58:53;;;;;;;9.53;7.13;;;24.10;36.30;;;;;;4985392;28;20480;-84
2022/09/02 05:01:22;;;;;;;8.13;7.00;;;24.10;36.30;;;;;;4979903;28;20491;-83
2022/09/02 05:03:52;;;;;;;7.60;6.37;;;24.10;36.40;;;;;;4978872;28;20444;-83
2022/09/02 05:06:21;;;;;;;10.17;7.63;;;24.00;36.30;;;;;;4982003;28;20540;-84
2022/09/02 05:08:50;;;;;;;8.10;7.10;;;24.00;36.20;;;;;;4980531;28;20453;-83
2022/09/02 05:11:23;;;;;;;7.10;6.30;;;24.00;36.30;;;;;;4982078;28;20446;-83
2022/09/02 05:13:52;;;;;;;7.27;6.50;;;24.00;36.20;;;;;;4981097;28;20453;-83
2022/09/02 05:16:23;;;;;;;7.17;6.23;;;24.00;36.30;;;;;;4979353;28;20466;-84
2022/09/02 05:18:51;;;;;;;7.17;6.30;;;24.00;36.30;;;;;;4979547;28;20432;-84
2022/09/02 05:21:19;;;;;;;7.23;6.33;;;24.00;36.20;;;;;;4980156;28;20496;-85
2022/09/02 05:23:47;;;;;;;6.20;5.60;;;24.00;36.20;;;;;;4980344;28;20485;-82
2022/09/02 05:26:16;;;;;;;6.80;6.07;;;24.00;36.20;;;;;;4975597;28;20444;-83
2022/09/02 05:28:44;;;;;;;8.63;5.87;;;24.00;36.30;;;;;;4976530;28;20428;-82
2022/09/02 05:31:16;;;;;;;7.00;6.30;;;23.90;36.10;;;;;;4987991;28;20463;-82
2022/09/02 05:33:45;;;;;;;6.17;5.60;;;23.90;36.10;;;;;;4993047;28;20464;-82
2022/09/02 05:36:17;;;;;;;7.00;5.40;;;23.90;36.20;;;;;;4999123;28;20996;-82
2022/09/02 05:38:45;;;;;;;5.70;5.20;;;23.90;36.20;;;;;;4998558;28;20503;-82
2022/09/02 05:41:14;;;;;;;6.13;5.53;;;23.90;36.20;;;;;;4997895;28;20512;-82
2022/09/02 05:43:44;;;;;;;5.93;5.37;;;23.90;36.20;;;;;;5004124;28;20494;-82
2022/09/02 05:46:16;;;;;;;5.67;5.17;;;23.90;36.20;;;;;;5003687;28;20455;-82
2022/09/02 05:51:31;;;;;;;5.97;5.37;;;23.80;36.10;;;;;;5004384;28;20973;-81
2022/09/02 05:54:00;;;;;;;5.73;5.23;;;23.80;36.20;;;;;;5004944;28;20455;-82
2022/09/02 05:56:28;;;;;;;5.30;4.80;;;23.80;36.20;;;;;;5005028;28;20492;-82
2022/09/02 05:58:57;;;;;;;4.67;4.30;;;23.80;36.10;;;;;;5005613;28;20423;-82
2022/09/02 06:01:29;;;;;;;5.47;4.97;;;23.80;36.20;;;;;;5004580;28;20518;-82
2022/09/02 06:03:58;;;;;;;4.50;4.20;;;23.80;36.10;;;;;;5002859;28;20447;-82
2022/09/02 06:06:26;;;;;;;5.80;4.90;;;23.80;36.10;;;;;;4995124;28;20448;-82
2022/09/02 06:08:54;;;;;;;5.07;4.60;;;23.80;36.00;;;;;;4983823;28;20513;-83
2022/09/02 06:11:22;;;;;;;4.40;4.00;;;23.80;36.10;;;;;;4984378;28;20428;-81
2022/09/02 06:13:51;;;;;;;4.50;4.10;;;23.80;36.10;;;;;;4984890;28;20452;-82
2022/09/02 06:16:20;;;;;;;4.43;4.03;;;23.90;36.00;;;;;;4983885;28;20508;-81
2022/09/02 06:18:50;;;;;;;4.70;4.30;;;23.90;36.00;;;;;;4985520;28;20461;-82
2022/09/02 06:21:23;;;;;;;4.80;4.40;;;23.90;36.00;;;;;;4985681;28;20463;-83
2022/09/02 06:23:52;;;;;;;4.47;4.07;;;24.00;36.00;;;;;;4993897;28;20473;-81
2022/09/02 06:26:20;;;;;;;4.63;4.20;;;24.00;35.90;;;;;;4984341;28;20863;-81
2022/09/02 06:28:48;;;;;;;4.63;4.23;;;24.10;36.00;;;;;;4985842;28;20460;-83
2022/09/02 06:31:17;;;;;;;4.67;4.27;;;24.10;35.80;;;;;;4985399;28;20480;-84
2022/09/02 06:33:46;;;;;;;4.10;3.70;;;24.20;35.80;;;;;;4985792;28;20420;-81
2022/09/02 06:36:16;;;;;;;4.13;3.83;;;24.30;35.80;;;;;;4990060;28;20452;-81
2022/09/02 06:38:45;;;;;;;4.00;3.70;;;24.30;35.80;;;;;;4990014;28;20419;-82
2022/09/02 06:41:14;;;;;;;3.90;3.60;;;24.40;35.80;;;;;;4995341;28;20428;-83
2022/09/02 06:43:42;;;;;;;4.43;3.93;;;24.40;35.70;;;;;;4997104;28;20466;-81
2022/09/02 06:46:14;;;;;;;4.30;3.90;;;24.50;35.70;;;;;;4989921;28;20444;-83
2022/09/02 06:48:42;;;;;;;3.90;3.10;;;24.50;35.70;;;;;;4992722;28;20452;-82
2022/09/02 06:51:17;;;;;;;4.53;4.13;;;24.50;35.60;;;;;;4992160;28;20453;-81
2022/09/02 06:53:45;;;;;;;5.03;3.50;;;24.50;35.60;;;;;;4987452;28;20427;-83
2022/09/02 06:56:13;;;;;;;3.80;3.50;;;24.50;35.60;;;;;;4984584;28;20470;-82
2022/09/02 06:58:41;;;;;;;3.40;3.20;;;24.50;35.60;;;;;;4992203;28;20452;-82
2022/09/02 07:01:12;;;;;;;3.30;3.10;;;24.50;35.70;;;;;;4988110;28;20420;-81
2022/09/02 07:06:27;;;;;;;3.93;3.70;;;24.50;35.80;;;;;;4981853;28;20557;-80
2022/09/02 07:08:55;;;;;;;3.40;3.20;;;24.50;35.70;;;;;;4986513;28;20533;-80
2022/09/02 07:11:23;;;;;;;3.77;3.47;;;24.50;35.80;;;;;;4987569;28;20510;-79
2022/09/02 07:13:51;;;;;;;3.27;3.07;;;24.50;35.80;;;;;;4988364;28;20466;-79
2022/09/02 07:16:21;;;;;;;4.23;3.20;;;24.60;35.80;;;;;;4990203;28;20475;-83
2022/09/02 07:18:54;;;;;;;3.20;3.00;;;24.60;35.80;;;;;;4984657;28;20434;-84
2022/09/02 07:21:22;;;;;;;3.50;3.20;;;24.60;36.00;;;;;;4985760;28;20462;-83
2022/09/02 07:23:51;;;;;;;3.30;3.10;;;24.60;36.00;;;;;;4984337;28;20505;-81
2022/09/02 07:26:19;;;;;;;3.23;2.90;;;24.60;35.90;;;;;;4983621;28;20497;-83
2022/09/02 07:28:47;;;;;;;2.63;2.47;;;24.60;36.00;;;;;;4982811;28;20462;-82
2022/09/02 07:31:16;;;;;;;3.23;2.93;;;24.70;36.10;;;;;;4982366;28;20425;-82
2022/09/02 07:33:51;;;;;;;3.10;2.80;;;24.70;36.00;;;;;;4982491;28;20417;-83
2022/09/02 07:36:25;;;;;;;3.37;3.17;;;24.70;36.00;;;;;;4993547;28;20499;-83
2022/09/02 07:38:59;;;;;;;2.87;2.67;;;24.70;36.10;;;;;;4983152;28;20444;-83
2022/09/02 07:41:28;;;;;;;2.33;2.23;;;24.80;36.10;;;;;;4983447;28;20428;-83
2022/09/02 07:43:57;;;;;;;2.70;2.60;;;24.80;36.20;;;;;;4979939;28;20574;-83
2022/09/02 07:46:28;;;;;;;2.77;2.63;;;24.80;36.20;;;;;;4994294;28;20453;-83
2022/09/02 07:48:57;;;;;;;3.00;2.80;;;24.90;36.20;;;;;;5007986;28;20537;-83
2022/09/02 07:51:25;;;;;;;2.80;2.70;;;25.00;36.30;;;;;;5006066;28;20454;-84
2022/09/02 07:53:59;;;;;;;2.90;2.70;;;25.00;36.20;;;;;;4998791;28;20464;-84
2022/09/02 07:56:27;;;;;;;2.93;2.73;;;25.20;36.20;;;;;;4985719;28;20454;-81
2022/09/02 07:58:55;;;;;;;3.17;2.97;;;25.30;36.80;;;;;;4986904;28;20450;-81
2022/09/02 08:01:23;;;;;;;2.40;2.30;;;25.40;36.10;;;;;;4985907;28;20425;-83
2022/09/02 08:03:52;;;;;;;2.80;2.60;;;25.60;36.00;;;;;;4986944;28;20479;-80
2022/09/02 08:06:22;;;;;;;3.23;2.93;;;25.80;35.90;;;;;;4985904;28;20493;-82
2022/09/02 08:09:03;;;;;;;2.63;2.50;;;25.90;35.60;;;;;;4984995;28;20431;-83
2022/09/02 08:11:34;;;;;;;3.83;2.80;;;26.10;35.60;;;;;;4992561;28;20486;-82
2022/09/02 08:14:02;;;;;;;2.60;2.50;;;26.30;35.50;;;;;;4989487;28;20459;-85
2022/09/02 08:16:30;;;;;;;2.43;2.23;;;26.50;35.50;;;;;;4984734;28;20498;-85
2022/09/02 08:18:58;;;;;;;2.93;2.47;;;26.70;35.40;;;;;;4982821;28;20473;-84
2022/09/02 08:21:27;;;;;;;2.70;2.60;;;26.90;35.20;;;;;;4984367;28;20450;-85
2022/09/02 08:23:56;;;;;;;2.47;2.37;;;27.10;35.10;;;;;;4984275;28;20552;-85
2022/09/02 08:26:27;;;;;;;2.40;2.30;;;27.30;35.60;;;;;;4993144;28;20507;-85
2022/09/02 08:28:55;;;;;;;2.33;2.23;;;27.50;34.80;;;;;;4998533;28;20449;-84
2022/09/02 08:31:23;;;;;;;2.83;2.60;;;27.80;34.60;;;;;;4991454;28;20515;-85
2022/09/02 08:33:51;;;;;;;2.30;2.20;;;28.10;34.60;;;;;;4987060;28;20445;-85
2022/09/02 08:36:19;;;;;;;2.20;2.10;;;28.30;34.30;;;;;;4997986;28;20468;-86
2022/09/02 08:38:48;;;;;;;4.20;2.40;;;28.50;34.20;;;;;;5000754;28;20508;-86
2022/09/02 08:41:21;;;;;;;2.53;2.33;;;28.70;34.10;;;;;;5003439;28;20455;-85
2022/09/02 08:43:51;;;;;;;2.30;2.20;;;28.90;34.00;;;;;;4977319;28;20452;-87
2022/09/02 08:46:20;;;;;;;2.83;2.63;;;29.10;33.80;;;;;;4975069;28;20474;-84
2022/09/02 08:48:51;;;;;;;2.47;2.27;;;29.40;33.80;;;;;;4990198;28;20426;-84
2022/09/02 08:51:22;;;;;;;2.47;2.37;;;29.60;33.60;;;;;;4994285;28;20448;-84
2022/09/02 08:53:52;;;;;;;2.10;2.00;;;29.80;33.50;;;;;;4983408;28;20458;-86
2022/09/02 08:56:19;;;;;;;2.50;2.37;;;30.00;33.50;;;;;;4973940;28;20450;-85
2022/09/02 08:58:52;;;;;;;2.40;2.20;;;30.20;33.30;;;;;;4974076;28;20438;-85
2022/09/02 09:01:28;;;;;;;2.40;2.30;;;30.40;33.20;;;;;;4974153;28;20457;-88
2022/09/02 09:04:29;;;;;;;2.20;1.93;;;30.60;33.20;;;;;;4974546;28;20462;-85
2022/09/02 09:07:10;;;;;;;2.33;2.20;;;30.80;33.10;;;;;;4973317;28;20453;-84
2022/09/02 09:09:45;;;;;;;2.40;2.20;;;31.00;33.00;;;;;;4975221;28;20450;-85
2022/09/02 09:12:16;;;;;;;2.20;1.90;;;31.20;32.90;;;;;;4974082;28;20508;-84
2022/09/02 09:14:47;;;;;;;2.40;2.30;;;31.40;32.80;;;;;;4974474;28;20561;-85
2022/09/02 09:17:20;;;;;;;3.03;2.30;;;31.70;32.80;;;;;;4980358;28;20486;-85
2022/09/02 09:19:50;;;;;;;2.47;2.37;;;31.80;32.60;;;;;;4993372;28;20420;-85
2022/09/02 09:22:19;;;;;;;1.87;1.77;;;32.10;32.60;;;;;;4994744;28;20830;-85
2022/09/02 09:24:48;;;;;;;2.13;2.03;;;32.20;32.50;;;;;;4983360;28;20993;-84
2022/09/02 09:27:17;;;;;;;2.10;2.00;;;32.40;32.40;;;;;;4978953;28;20944;-86
2022/09/02 09:29:47;;;;;;;2.00;1.90;;;32.60;32.30;;;;;;4981373;28;20456;-85
2022/09/02 09:32:21;;;;;;;2.63;2.07;;;32.80;32.20;;;;;;4978953;28;20485;-81
2022/09/02 09:34:56;;;;;;;2.07;1.97;;;32.90;32.10;;;;;;4979629;28;20489;-84
2022/09/02 09:37:35;;;;;;;2.47;2.20;;;33.20;32.00;;;;;;4978775;28;20450;-83
2022/09/02 09:40:24;;;;;;;2.27;2.17;;;33.30;32.00;;;;;;4977935;28;20509;-85
2022/09/02 09:42:55;;;;;;;2.30;2.20;;;33.50;31.90;;;;;;4981238;28;20445;-84
2022/09/02 09:45:31;;;;;;;2.43;2.30;;;33.70;31.80;;;;;;4977994;28;20486;-85
2022/09/02 09:48:22;;;;;;;3.60;2.40;;;33.90;31.70;;;;;;4985572;28;20454;-83
2022/09/02 09:51:12;;;;;;;2.63;2.43;;;34.10;31.60;;;;;;4980010;28;20465;-84
2022/09/02 09:53:40;;;;;;;3.27;2.30;;;34.30;31.50;;;;;;4973836;28;20480;-85
2022/09/02 09:56:31;;;;;;;2.73;2.23;;;34.50;31.50;;;;;;4975260;28;20498;-85
2022/09/02 09:59:06;;;;;;;2.27;2.17;;;34.60;31.20;;;;;;4974761;28;20481;-84
2022/09/02 10:01:35;;;;;;;2.60;2.40;;;34.80;31.20;;;;;;4978139;28;20517;-84
2022/09/02 10:04:06;;;;;;;2.53;2.43;;;35.00;31.10;;;;;;4978267;28;20446;-84
2022/09/02 10:06:52;;;;;;;2.50;2.40;;;35.10;30.90;;;;;;4979278;28;20432;-85
2022/09/02 10:09:32;;;;;;;2.10;2.00;;;35.40;30.90;;;;;;4976979;28;20438;-84
2022/09/02 10:12:01;;;;;;;3.43;2.30;;;35.60;30.70;;;;;;4992402;28;20469;-84
2022/09/02 10:14:33;;;;;;;2.20;2.10;;;35.70;30.50;;;;;;4996366;28;20480;-85
2022/09/02 10:17:10;;;;;;;3.03;2.23;;;35.90;30.40;;;;;;4989026;28;20539;-85
2022/09/02 10:19:39;;;;;;;2.37;2.17;;;36.00;30.90;;;;;;4978215;28;20488;-85
2022/09/02 10:22:25;;;;;;;2.30;2.20;;;36.20;30.10;;;;;;4977738;28;20529;-84
2022/09/02 10:25:20;;;;;;;2.30;2.20;;;36.40;30.70;;;;;;4993977;28;20474;-85
2022/09/02 10:27:52;;;;;;;2.00;1.90;;;36.60;30.00;;;;;;4987451;28;20520;-85
2022/09/02 10:30:20;;;;;;;2.43;2.20;;;36.70;29.90;;;;;;4980767;28;20477;-85
2022/09/02 10:33:04;;;;;;;2.17;2.07;;;37.00;29.90;;;;;;4989325;28;20469;-85
2022/09/02 10:35:36;;;;;;;2.57;2.37;;;37.10;29.80;;;;;;4980133;28;20462;-85
2022/09/02 10:38:17;;;;;;;2.10;2.00;;;37.20;29.60;;;;;;4981940;28;20462;-84
2022/09/02 10:40:45;;;;;;;5.53;2.30;;;37.50;29.70;;;;;;4979505;28;20445;-84
2022/09/02 10:43:24;;;;;;;2.70;2.00;;;37.60;29.50;;;;;;4979623;28;20490;-85
2022/09/02 10:45:53;;;;;;;1.90;1.80;;;37.80;29.40;;;;;;4991741;28;20486;-84
2022/09/02 10:48:29;;;;;;;2.93;2.00;;;37.90;29.30;;;;;;4996995;28;20544;-85
2022/09/02 10:51:01;;;;;;;1.90;1.80;;;37.90;29.20;;;;;;4981239;28;20508;-84
2022/09/02 10:53:42;;;;;;;2.37;2.20;;;38.00;29.20;;;;;;4984019;28;20809;-84
2022/09/02 10:56:13;;;;;;;2.10;2.00;;;38.20;29.20;;;;;;4990891;28;20521;-84
2022/09/02 10:58:45;;;;;;;2.70;1.97;;;38.30;29.10;;;;;;4998767;28;20476;-84
2022/09/02 11:01:15;;;;;;;2.30;2.10;;;38.40;28.90;;;;;;4990013;28;20458;-86
2022/09/02 11:03:52;;;;;;;2.10;2.00;;;38.50;29.20;;;;;;4991221;28;20441;-84
2022/09/02 11:06:24;;;;;;;1.97;1.87;;;38.70;28.90;;;;;;4984426;28;20476;-83
2022/09/02 11:09:08;;;;;;;2.20;2.10;;;38.80;28.80;;;;;;4995782;28;20449;-84
2022/09/02 11:11:39;;;;;;;1.77;1.67;;;39.00;28.70;;;;;;4995899;28;20507;-84
2022/09/02 11:14:15;;;;;;;1.70;1.70;;;39.10;28.60;;;;;;4991602;28;20452;-85
2022/09/02 11:16:50;;;;;;;1.90;1.80;;;39.20;28.50;;;;;;4993184;28;20445;-84
2022/09/02 11:19:22;;;;;;;1.70;1.60;;;39.30;28.50;;;;;;4993439;28;20469;-84
2022/09/02 11:21:55;;;;;;;1.40;1.40;;;39.40;28.40;;;;;;4985943;28;20470;-84
2022/09/02 11:24:26;;;;;;;2.40;2.30;;;39.60;28.30;;;;;;4982579;28;20521;-85
2022/09/02 11:26:57;;;;;;;1.70;1.60;;;39.80;28.20;;;;;;4993909;28;20504;-85
2022/09/02 11:29:31;;;;;;;1.70;1.60;;;39.90;28.20;;;;;;4994705;28;20485;-85
2022/09/02 11:32:04;;;;;;;1.53;1.50;;;40.00;28.10;;;;;;4988038;28;20485;-85
2022/09/02 11:34:36;;;;;;;1.87;1.60;;;40.10;27.90;;;;;;4986977;28;20517;-85
2022/09/02 11:37:05;;;;;;;1.70;1.60;;;40.30;27.90;;;;;;4991204;28;20450;-85
2022/09/02 11:39:35;;;;;;;1.67;1.57;;;40.40;27.70;;;;;;4984510;28;20484;-83
2022/09/02 11:42:26;;;;;;;1.80;1.70;;;40.50;27.70;;;;;;4984246;28;20448;-85
2022/09/02 11:45:16;;;;;;;1.60;1.60;;;40.60;27.70;;;;;;4984685;28;20547;-86
2022/09/02 11:48:06;;;;;;;1.53;1.43;;;40.70;27.50;;;;;;4971943;28;20446;-86
2022/09/02 11:50:59;;;;;;;1.50;1.40;;;40.90;27.50;;;;;;4982408;28;20520;-84
2022/09/02 11:53:28;;;;;;;1.80;1.70;;;41.00;27.50;;;;;;4992083;28;20457;-84
2022/09/02 11:56:00;;;;;;;1.70;1.63;;;41.10;27.40;;;;;;5001854;28;20483;-85
2022/09/02 11:58:33;;;;;;;1.63;1.50;;;41.20;27.30;;;;;;4985837;28;20454;-85
2022/09/02 12:01:05;;;;;;;1.30;1.30;;;41.40;27.20;;;;;;4991384;28;20468;-84
2022/09/02 12:03:42;;;;;;;1.30;1.30;;;41.40;27.10;;;;;;4994710;28;20461;-82
2022/09/02 12:06:31;;;;;;;1.50;1.50;;;41.50;27.10;;;;;;4980452;28;20482;-85
2022/09/02 12:09:11;;;;;;;1.73;1.63;;;41.60;27.00;;;;;;4983579;28;20442;-84
2022/09/02 12:11:48;;;;;;;2.00;1.20;;;41.70;26.90;;;;;;4987881;28;20449;-86
2022/09/02 12:15:10;;;;;;;1.60;1.50;;;41.80;26.90;;;;;;5002890;28;20487;-85
2022/09/02 12:17:45;;;;;;;1.80;1.70;;;41.90;26.80;;;;;;4997375;28;20471;-83
2022/09/02 12:20:51;;;;;;;1.90;1.50;;;41.90;26.60;;;;;;4998533;28;20439;-82
2022/09/02 12:23:55;;;;;;;1.33;1.27;;;42.10;26.60;;;;;;4980713;28;20523;-82
2022/09/02 12:26:25;;;;;;;1.23;1.23;;;42.10;26.50;;;;;;4987952;28;20472;-82
2022/09/02 12:28:53;;;;;;;1.37;1.27;;;42.20;26.50;;;;;;4992914;28;20461;-82
2022/09/02 12:31:39;;;;;;;1.70;1.60;;;42.20;26.40;;;;;;4981922;28;20485;-82
2022/09/02 12:34:41;;;;;;;1.27;1.27;;;42.30;26.30;;;;;;4981819;28;20457;-83
2022/09/02 12:37:16;;;;;;;1.37;1.27;;;42.40;26.30;;;;;;4985125;28;20460;-81
2022/09/02 12:39:54;;;;;;;1.20;1.20;;;42.50;26.20;;;;;;4991289;28;20444;-81
2022/09/02 12:42:26;;;;;;;1.30;1.30;;;42.50;26.10;;;;;;5003999;28;20436;-82
2022/09/02 12:44:59;;;;;;;1.23;1.23;;;42.60;26.10;;;;;;5005723;28;20507;-81
2022/09/02 12:47:34;;;;;;;2.43;1.20;;;42.60;26.10;;;;;;5000062;28;20845;-81
2022/09/02 12:50:04;;;;;;;1.27;1.27;;;42.70;26.00;;;;;;4996061;28;20543;-81
2022/09/02 12:52:42;;;;;;;1.13;1.13;;;42.70;25.90;;;;;;4989570;28;20535;-82
2022/09/02 12:55:13;;;;;;;1.47;1.10;;;42.80;25.90;;;;;;4998661;28;20503;-82
2022/09/02 12:57:50;;;;;;;1.30;1.20;;;42.90;25.80;;;;;;4979979;28;20456;-82
2022/09/02 13:00:27;;;;;;;1.30;1.30;;;43.00;25.70;;;;;;4990178;28;20527;-82
2022/09/02 13:03:01;;;;;;;1.47;1.20;;;43.10;25.70;;;;;;4990282;28;20516;-82
2022/09/02 13:05:32;;;;;;;1.20;1.20;;;43.00;25.40;;;;;;4997029;28;20484;-82
2022/09/02 13:08:40;;;;;;;3.70;1.23;;;43.10;25.50;;;;;;4987681;28;20469;-82
2022/09/02 13:11:43;;;;;;;0.93;0.93;;;43.20;25.50;;;;;;4929702;29;20542;-83